Time;durP1;ratioP1;P1;durP2;ratioP2;P2;SDS_P1;SDS_P2;PMS_P1;PMS_P2;Temp;Humidity;BMP_temperature;BMP_pressure;BME280_temperature;BME280_humidity;BME280_pressure;Samples;Min_cycle;Max_cycle;Signal;HPM_P1;HPM_P2
2020/12/02 00:00:01;;;;;;;21.75;10.00;;;;;;;2.69;80.86;100058.97;3839620;22;20021;-81
2020/12/02 00:01:36;;;;;;;22.88;10.38;;;;;;;2.72;80.55;100056.16;3843121;23;20032;-82
2020/12/02 00:03:14;;;;;;;26.02;11.07;;;;;;;2.67;80.41;100051.16;3840149;23;20025;-82
2020/12/02 00:04:47;;;;;;;30.70;13.95;;;;;;;2.72;80.66;100046.44;3840115;22;20017;-81
2020/12/02 00:06:22;;;;;;;26.67;12.57;;;;;;;2.72;80.34;100054.34;3841875;23;20029;-82
2020/12/02 00:08:02;;;;;;;27.80;12.32;;;;;;;2.71;80.51;100046.53;3840452;22;20028;-82
2020/12/02 00:09:34;;;;;;;26.08;13.02;;;;;;;2.64;80.79;100046.91;3842678;23;20025;-82
2020/12/02 00:11:09;;;;;;;25.10;11.32;;;;;;;2.64;80.67;100046.91;3839646;22;20014;-82
2020/12/02 00:12:43;;;;;;;23.33;10.75;;;;;;;2.69;80.60;100045.78;3843245;23;20032;-82
2020/12/02 00:14:21;;;;;;;32.20;13.77;;;;;;;2.67;80.65;100045.00;3840190;22;20020;-82
2020/12/02 00:15:52;;;;;;;34.15;14.23;;;;;;;2.55;80.93;100049.25;3841627;23;20025;-83
2020/12/02 00:17:23;;;;;;;29.15;12.93;;;;;;;2.48;81.24;100048.78;3840014;22;20483;-82
2020/12/02 00:18:57;;;;;;;28.40;12.98;;;;;;;2.57;81.05;100052.66;3850066;23;20032;-82
2020/12/02 00:20:28;;;;;;;28.52;12.55;;;;;;;2.56;81.16;100051.78;3851607;22;20013;-82
2020/12/02 00:22:08;;;;;;;29.27;13.77;;;;;;;2.56;80.67;100053.59;3846429;23;20017;-82
2020/12/02 00:23:42;;;;;;;24.83;11.57;;;;;;;2.60;80.94;100055.09;3845133;22;20029;-82
2020/12/02 00:25:15;;;;;;;28.70;15.60;;;;;;;2.61;80.91;100049.75;3844963;23;20028;-82
2020/12/02 00:26:48;;;;;;;31.00;13.73;;;;;;;2.54;81.03;100052.84;3837632;22;20508;-83
2020/12/02 00:28:20;;;;;;;22.90;11.32;;;;;;;2.61;80.85;100054.16;3842929;23;20032;-82
2020/12/02 00:29:51;;;;;;;27.80;13.18;;;;;;;2.58;80.85;100042.00;3839207;22;20667;-82
2020/12/02 00:31:23;;;;;;;22.58;10.50;;;;;;;2.65;80.85;100045.13;3843483;23;20025;-82
2020/12/02 00:33:08;;;;;;;24.25;11.70;;;;;;;2.67;80.47;100042.38;3841899;22;20021;-82
2020/12/02 00:34:39;;;;;;;25.63;12.20;;;;;;;2.70;80.62;100043.03;3840157;22;20032;-82
2020/12/02 00:36:10;;;;;;;24.60;11.63;;;;;;;2.71;80.57;100043.91;3842802;23;20025;-82
2020/12/02 00:37:41;;;;;;;30.40;13.25;;;;;;;2.72;80.54;100040.31;3840069;22;20353;-82
2020/12/02 00:39:13;;;;;;;27.17;12.10;;;;;;;2.71;80.56;100038.63;3844368;23;20025;-82
2020/12/02 00:40:45;;;;;;;22.25;10.07;;;;;;;2.82;80.46;100041.44;3842959;22;20021;-83
2020/12/02 00:42:17;;;;;;;21.42;9.93;;;;;;;2.81;80.46;100040.56;3844022;23;20099;-82
2020/12/02 00:43:48;;;;;;;24.45;10.90;;;;;;;2.84;80.17;100044.81;3841136;22;20028;-82
2020/12/02 00:45:19;;;;;;;23.45;9.65;;;;;;;2.85;80.32;100040.41;3844191;23;20017;-82
2020/12/02 00:46:50;;;;;;;25.70;11.05;;;;;;;2.83;80.23;100040.50;3841051;22;20105;-82
2020/12/02 00:48:23;;;;;;;24.30;10.48;;;;;;;2.89;80.37;100044.53;3843001;23;20026;-82
2020/12/02 00:49:56;;;;;;;20.02;9.57;;;;;;;2.92;80.13;100042.56;3841971;22;21967;-82
2020/12/02 00:51:27;;;;;;;26.15;11.18;;;;;;;2.91;80.10;100045.28;3844648;23;20017;-82
2020/12/02 00:53:01;;;;;;;25.45;11.65;;;;;;;2.85;80.06;100030.66;3841334;22;20017;-82
2020/12/02 00:54:35;;;;;;;24.88;11.15;;;;;;;2.96;80.08;100038.78;3844648;23;20045;-82
2020/12/02 00:56:10;;;;;;;24.45;11.45;;;;;;;3.04;79.90;100042.72;3838615;22;20028;-82
2020/12/02 00:57:42;;;;;;;27.42;12.65;;;;;;;3.06;79.96;100035.56;3845040;23;20027;-83
2020/12/02 00:59:20;;;;;;;20.10;9.27;;;;;;;3.09;79.62;100027.44;3841252;22;20025;-83
2020/12/02 01:00:54;;;;;;;21.02;8.90;;;;;;;3.16;79.58;100034.03;3846285;23;20028;-82
2020/12/02 01:02:35;;;;;;;21.70;9.77;;;;;;;3.18;79.45;100037.44;3842041;22;20028;-82
2020/12/02 01:04:16;;;;;;;24.77;11.75;;;;;;;3.24;79.10;100037.03;3845569;23;20017;-82
2020/12/02 01:05:48;;;;;;;20.95;8.85;;;;;;;3.26;79.18;100036.91;3842123;22;20029;-82
2020/12/02 01:07:21;;;;;;;20.48;9.50;;;;;;;3.32;79.14;100027.75;3845029;23;20021;-82
2020/12/02 01:08:53;;;;;;;26.17;11.38;;;;;;;3.32;79.17;100033.91;3841601;22;20075;-83
2020/12/02 01:10:24;;;;;;;23.40;10.13;;;;;;;3.26;79.16;100019.28;3845367;23;20021;-82
2020/12/02 01:11:59;;;;;;;;;;;;;;;3.14;79.15;100033.28;3842285;22;20075;-82
2020/12/02 01:13:32;;;;;;;24.58;10.63;;;;;;;3.20;79.30;100035.53;3845762;23;19918;-82
2020/12/02 01:15:06;;;;;;;24.15;10.77;;;;;;;3.16;79.39;100028.75;3842613;22;20080;-82
2020/12/02 01:16:40;;;;;;;21.17;11.18;;;;;;;3.18;79.35;100023.34;3841654;22;20013;-82
2020/12/02 01:18:17;;;;;;;22.38;11.35;;;;;;;3.19;79.14;100023.28;3844334;23;20021;-82
2020/12/02 01:19:48;;;;;;;27.05;13.45;;;;;;;3.10;79.33;100023.88;3842728;22;20024;-82
2020/12/02 01:21:27;;;;;;;28.52;13.32;;;;;;;3.04;79.07;100026.88;3844102;23;20021;-82
2020/12/02 01:22:58;;;;;;;21.60;10.50;;;;;;;3.05;79.23;100025.94;3841161;22;20017;-82
2020/12/02 01:24:33;;;;;;;28.75;13.40;;;;;;;2.93;79.58;100020.47;3845745;23;20023;-82
2020/12/02 01:26:06;;;;;;;29.15;14.77;;;;;;;2.92;79.35;100026.72;3842143;22;20021;-82
2020/12/02 01:27:45;;;;;;;28.65;12.65;;;;;;;2.88;79.45;100025.22;3845414;23;20021;-82
2020/12/02 01:29:24;;;;;;;28.02;14.52;;;;;;;2.84;79.33;100034.25;3843827;22;20021;-82
2020/12/02 01:31:05;;;;;;;29.90;14.63;;;;;;;2.78;79.43;100029.38;3853533;23;20032;-81
2020/12/02 01:32:38;;;;;;;28.63;13.98;;;;;;;2.73;79.74;100032.28;3851310;22;20021;-83
2020/12/02 01:34:10;;;;;;;24.85;12.45;;;;;;;2.70;79.91;100032.47;3853605;23;20021;-82
2020/12/02 01:35:43;;;;;;;28.35;12.90;;;;;;;2.73;79.77;100032.28;3846241;22;20018;-82
2020/12/02 01:37:24;;;;;;;29.75;15.32;;;;;;;2.67;79.60;100026.53;3843099;23;20025;-82
2020/12/02 01:38:58;;;;;;;25.33;12.35;;;;;;;2.71;80.03;100033.34;3839952;22;20025;-82
2020/12/02 01:40:33;;;;;;;29.42;13.82;;;;;;;2.75;79.92;100026.91;3843104;23;20021;-82
2020/12/02 01:42:04;;;;;;;28.08;13.38;;;;;;;2.77;79.75;100033.81;3839302;22;20024;-82
2020/12/02 01:43:39;;;;;;;25.10;12.30;;;;;;;2.84;79.77;100034.25;3840597;22;20053;-82
2020/12/02 01:45:18;;;;;;;25.23;12.57;;;;;;;2.85;79.49;100038.59;3844133;23;20028;-82
2020/12/02 01:47:02;;;;;;;25.27;10.98;;;;;;;2.88;79.29;100032.28;3839155;23;20472;-82
2020/12/02 01:49:08;;;;;;;25.50;12.40;;;;;;;2.86;79.43;100034.19;3842683;23;20040;-82
2020/12/02 01:50:43;;;;;;;26.60;12.57;;;;;;;2.84;79.71;100028.97;3835729;22;20029;-82
2020/12/02 01:52:32;;;;;;;26.15;11.82;;;;;;;2.86;79.27;100032.38;3843876;23;20044;-82
2020/12/02 01:54:07;;;;;;;22.88;10.48;;;;;;;2.81;79.51;100024.75;3839647;23;20021;-82
2020/12/02 01:55:43;;;;;;;25.98;13.23;;;;;;;2.78;79.64;100029.38;3840586;22;20024;-82
2020/12/02 01:57:22;;;;;;;27.23;13.85;;;;;;;2.71;79.53;100028.06;3842075;23;20047;-82
2020/12/02 01:59:06;;;;;;;30.40;13.07;;;;;;;2.73;79.84;100020.91;3838668;22;20409;-83
2020/12/02 02:00:40;;;;;;;24.77;12.02;;;;;;;2.74;79.69;100031.34;3843424;23;20021;-82
2020/12/02 02:02:18;;;;;;;27.27;12.55;;;;;;;2.74;79.51;100023.44;3839775;22;20028;-82
2020/12/02 02:03:52;;;;;;;24.00;12.30;;;;;;;2.79;79.53;100023.13;3844059;23;20025;-82
2020/12/02 02:05:29;;;;;;;25.77;13.45;;;;;;;2.77;79.53;100020.59;3840769;22;20024;-82
2020/12/02 02:07:09;;;;;;;21.23;10.23;;;;;;;2.86;79.47;100021.81;3842128;23;20021;-82
2020/12/02 02:08:42;;;;;;;22.25;10.95;;;;;;;2.85;79.58;100025.38;3841420;22;20025;-82
2020/12/02 02:10:17;;;;;;;27.40;13.82;;;;;;;2.81;79.36;100014.19;3842977;23;20171;-81
2020/12/02 02:11:55;;;;;;;29.92;14.80;;;;;;;2.77;79.34;100022.38;3839936;22;20032;-82
2020/12/02 02:14:02;;;;;;;33.72;15.73;;;;;;;2.70;79.36;100021.91;3843192;23;20024;-82
2020/12/02 02:15:41;;;;;;;29.88;14.80;;;;;;;2.72;79.49;100024.47;3839312;23;20025;-82
2020/12/02 02:17:12;;;;;;;30.40;15.90;;;;;;;2.71;79.63;100013.03;3839323;22;20021;-82
2020/12/02 02:18:44;;;;;;;31.55;15.75;;;;;;;2.65;79.84;100016.06;3839685;23;20410;-82
2020/12/02 02:20:17;;;;;;;28.42;13.48;;;;;;;2.69;79.79;100009.69;3840245;22;20025;-83
2020/12/02 02:21:56;;;;;;;32.20;16.23;;;;;;;2.70;79.77;100013.16;3842983;23;20028;-82
2020/12/02 02:23:28;;;;;;;34.50;16.60;;;;;;;2.69;79.82;100014.09;3840088;22;20365;-83
2020/12/02 02:25:01;;;;;;;30.95;15.88;;;;;;;2.64;79.65;100002.03;3842699;23;20017;-82
2020/12/02 02:26:39;;;;;;;32.28;14.80;;;;;;;2.62;79.82;100008.34;3839340;22;20025;-82
2020/12/02 02:28:14;;;;;;;26.98;14.80;;;;;;;2.62;79.93;100003.06;3845184;23;20020;-83
2020/12/02 02:29:47;;;;;;;36.33;17.33;;;;;;;2.62;79.96;100001.28;3849704;22;20075;-82
2020/12/02 02:31:21;;;;;;;30.98;13.75;;;;;;;2.69;79.99;100003.53;3845846;23;20441;-82
2020/12/02 02:32:53;;;;;;;30.67;16.30;;;;;;;2.69;79.75;100001.75;3840649;22;20424;-82
2020/12/02 02:34:25;;;;;;;26.08;13.02;;;;;;;2.68;79.91;100000.06;3842411;23;20494;-81
2020/12/02 02:35:56;;;;;;;25.95;13.73;;;;;;;2.70;79.70;100006.06;3839874;22;20021;-82
2020/12/02 02:37:31;;;;;;;28.13;14.02;;;;;;;2.75;79.64;100004.00;3842187;23;20073;-82
2020/12/02 02:39:05;;;;;;;27.08;13.55;;;;;;;2.80;79.80;99998.44;3839900;22;20484;-82
2020/12/02 02:40:36;;;;;;;24.52;12.77;;;;;;;2.76;79.79;100000.44;3838278;22;20021;-82
2020/12/02 02:42:25;;;;;;;27.00;13.57;;;;;;;2.79;79.57;100002.84;3841569;23;20438;-83
2020/12/02 02:43:57;;;;;;;28.85;13.73;;;;;;;2.80;79.64;99995.78;3840218;22;20103;-82
2020/12/02 02:45:30;;;;;;;33.15;15.88;;;;;;;2.80;79.59;100001.06;3841492;23;20021;-82
2020/12/02 02:47:01;;;;;;;34.22;14.45;;;;;;;2.77;79.61;100001.25;3838048;22;20021;-82
2020/12/02 02:48:34;;;;;;;31.13;16.88;;;;;;;2.73;79.78;99999.78;3840569;23;20526;-82
2020/12/02 02:50:09;;;;;;;38.00;17.52;;;;;;;2.65;79.94;99998.44;3837844;22;20500;-82
2020/12/02 02:51:40;;;;;;;36.30;17.40;;;;;;;2.65;80.09;100003.72;3841440;23;20103;-82
2020/12/02 02:53:18;;;;;;;37.75;15.43;;;;;;;2.66;79.91;99994.03;3839012;22;20028;-82
2020/12/02 02:54:51;;;;;;;34.28;14.65;;;;;;;2.60;80.37;99995.25;3842197;23;20023;-82
2020/12/02 02:56:31;;;;;;;39.97;17.17;;;;;;;2.60;80.21;99984.69;3836703;22;20032;-81
2020/12/02 02:58:03;;;;;;;30.85;16.17;;;;;;;2.55;80.39;99994.66;3838255;23;20025;-82
2020/12/02 02:59:35;;;;;;;29.75;14.15;;;;;;;2.58;80.66;99986.56;3839615;22;20056;-82
2020/12/02 03:01:08;;;;;;;38.53;18.52;;;;;;;2.60;80.32;99997.88;3841548;23;20021;-81
2020/12/02 03:02:39;;;;;;;30.10;15.38;;;;;;;2.61;80.14;99991.66;3839316;22;20025;-83
2020/12/02 03:04:11;;;;;;;32.88;15.40;;;;;;;2.61;80.05;99994.31;3841573;23;20017;-82
2020/12/02 03:05:43;;;;;;;25.35;13.45;;;;;;;2.62;80.13;99997.78;3838383;22;20021;-81
2020/12/02 03:07:17;;;;;;;32.00;15.80;;;;;;;2.60;80.05;100007.56;3838832;23;20020;-82
2020/12/02 03:08:50;;;;;;;29.90;14.77;;;;;;;2.65;79.89;99998.44;3838190;22;20028;-82
2020/12/02 03:10:25;;;;;;;32.38;15.38;;;;;;;2.64;79.76;99996.75;3841595;23;20021;-82
2020/12/02 03:11:58;;;;;;;28.70;13.25;;;;;;;2.61;80.05;99990.81;3837816;22;20045;-81
2020/12/02 03:13:37;;;;;;;29.88;15.50;;;;;;;2.68;79.78;99989.50;3840620;23;20028;-82
2020/12/02 03:15:10;;;;;;;26.77;13.68;;;;;;;2.66;79.70;99991.38;3838719;23;20504;-83
2020/12/02 03:16:47;;;;;;;25.75;11.73;;;;;;;2.76;79.90;99989.00;3836871;22;20361;-82
2020/12/02 03:18:20;;;;;;;29.75;14.98;;;;;;;2.76;79.77;99992.50;3839763;23;20539;-82
2020/12/02 03:19:57;;;;;;;25.50;11.38;;;;;;;2.79;79.57;99991.47;3838263;22;20017;-82
2020/12/02 03:21:28;;;;;;;27.35;13.38;;;;;;;2.78;79.57;99992.41;3840967;23;20032;-82
2020/12/02 03:22:59;;;;;;;26.77;12.10;;;;;;;2.84;79.37;99981.44;3839468;22;20028;-82
2020/12/02 03:24:31;;;;;;;24.95;12.55;;;;;;;2.81;79.29;99987.78;3841356;23;20465;-82
2020/12/02 03:26:03;;;;;;;24.92;13.23;;;;;;;2.81;79.27;99984.28;3838547;22;20080;-82
2020/12/02 03:27:34;;;;;;;25.13;12.60;;;;;;;2.80;79.32;99991.34;3846635;23;20462;-82
2020/12/02 03:29:08;;;;;;;22.67;11.30;;;;;;;2.90;79.08;99994.28;3844568;22;20024;-83
2020/12/02 03:30:41;;;;;;;23.23;12.23;;;;;;;2.83;79.22;99995.63;3846968;23;20025;-83
2020/12/02 03:32:12;;;;;;;22.27;11.65;;;;;;;2.94;79.11;99990.47;3843185;22;20021;-82
2020/12/02 03:33:44;;;;;;;28.15;13.15;;;;;;;2.99;78.92;99997.28;3843201;23;20020;-82
2020/12/02 03:35:16;;;;;;;28.75;13.90;;;;;;;2.92;78.68;99997.69;3842895;22;20021;-82
2020/12/02 03:36:47;;;;;;;24.35;13.75;;;;;;;2.80;78.83;99985.22;3845017;23;20021;-81
2020/12/02 03:38:18;;;;;;;22.35;11.88;;;;;;;2.88;78.75;99990.03;3841808;22;20035;-82
2020/12/02 03:39:50;;;;;;;23.92;12.40;;;;;;;2.85;78.74;99998.97;3844436;23;20021;-82
2020/12/02 03:41:21;;;;;;;22.88;11.77;;;;;;;2.94;78.58;99993.13;3840298;22;20036;-82
2020/12/02 03:42:52;;;;;;;22.73;11.10;;;;;;;2.94;78.40;100002.84;3842466;23;20028;-82
2020/12/02 03:44:25;;;;;;;23.23;12.00;;;;;;;2.93;78.32;99994.06;3839493;22;20025;-81
2020/12/02 03:45:57;;;;;;;25.80;11.98;;;;;;;2.92;78.32;99997.69;3841046;23;20056;-82
2020/12/02 03:47:28;;;;;;;24.58;13.35;;;;;;;2.88;78.31;99993.53;3838523;22;20326;-82
2020/12/02 03:49:00;;;;;;;15.75;8.27;;;;;;;2.91;78.33;99987.19;3842006;23;20025;-82
2020/12/02 03:50:34;;;;;;;21.08;10.35;;;;;;;2.98;78.18;99988.50;3839400;22;20032;-82
2020/12/02 03:52:07;;;;;;;23.02;11.50;;;;;;;2.95;78.18;99986.91;3844888;23;20028;-81
2020/12/02 03:53:39;;;;;;;27.38;15.00;;;;;;;2.92;78.25;99994.16;3843290;22;20103;-82
2020/12/02 03:55:12;;;;;;;24.83;11.77;;;;;;;2.86;78.24;99995.41;3844308;23;20021;-82
2020/12/02 03:56:43;;;;;;;23.85;13.30;;;;;;;2.85;78.37;99996.34;3840892;22;20025;-82
2020/12/02 03:58:15;;;;;;;29.15;13.65;;;;;;;2.77;78.50;99994.22;3841319;23;20028;-81
2020/12/02 03:59:47;;;;;;;24.48;13.18;;;;;;;2.77;78.58;99991.56;3843758;22;20017;-80
2020/12/02 04:01:20;;;;;;;23.58;12.43;;;;;;;2.80;78.50;99993.16;3846769;23;20076;-82
2020/12/02 04:02:52;;;;;;;28.08;13.93;;;;;;;2.75;78.57;99989.94;3845668;22;20060;-82
2020/12/02 04:04:26;;;;;;;27.55;15.23;;;;;;;2.74;78.58;99991.75;3846378;23;20063;-81
2020/12/02 04:05:57;;;;;;;22.58;11.57;;;;;;;2.75;78.85;99988.16;3843135;22;20485;-82
2020/12/02 04:07:29;;;;;;;27.27;14.30;;;;;;;2.71;78.71;99988.44;3845707;23;20025;-82
2020/12/02 04:09:00;;;;;;;29.88;14.88;;;;;;;2.65;78.87;99987.03;3842826;22;20048;-82
2020/12/02 04:10:32;;;;;;;32.53;14.38;;;;;;;2.59;78.92;99990.91;3848455;23;20031;-82
2020/12/02 04:12:06;;;;;;;29.08;15.43;;;;;;;2.60;78.86;99987.31;3843641;22;20021;-82
2020/12/02 04:13:40;;;;;;;26.38;14.60;;;;;;;2.61;78.81;99996.09;3842393;22;20035;-82
2020/12/02 04:15:13;;;;;;;28.27;13.45;;;;;;;2.61;78.83;99991.66;3843845;23;20025;-82
2020/12/02 04:16:44;;;;;;;27.30;15.10;;;;;;;2.52;78.67;99989.59;3842668;22;20017;-82
2020/12/02 04:18:15;;;;;;;22.67;11.95;;;;;;;2.52;79.15;99988.72;3845326;23;20032;-82
2020/12/02 04:19:47;;;;;;;;;;;;;;;2.49;79.30;99992.41;3847565;22;20096;-82
2020/12/02 04:21:23;;;;;;;21.50;11.57;;;;;;;2.55;79.12;99986.75;3848359;23;19965;-82
2020/12/02 04:22:56;;;;;;;25.02;12.13;;;;;;;2.53;78.81;99993.06;3846204;22;20157;-81
2020/12/02 04:24:28;;;;;;;25.30;13.25;;;;;;;2.56;78.80;99988.44;3850954;23;20021;-80
2020/12/02 04:25:59;;;;;;;25.20;13.65;;;;;;;2.55;78.83;99992.03;3851490;22;20028;-82
2020/12/02 04:27:31;;;;;;;25.15;13.98;;;;;;;2.56;78.82;99991.09;3850955;23;20025;-82
2020/12/02 04:29:01;;;;;;;21.98;11.60;;;;;;;2.59;78.73;99990.91;3851078;22;20009;-82
2020/12/02 04:30:35;;;;;;;24.17;12.48;;;;;;;2.60;78.87;99997.03;3852203;23;20076;-82
2020/12/02 04:32:06;;;;;;;23.88;13.52;;;;;;;2.53;78.52;99986.03;3850473;22;20036;-82
2020/12/02 04:33:37;;;;;;;25.13;14.50;;;;;;;2.53;78.58;99985.16;3852245;23;20025;-82
2020/12/02 04:35:15;;;;;;;24.85;13.35;;;;;;;2.50;78.83;99991.47;3849286;22;20036;-81
2020/12/02 04:37:22;;;;;;;24.85;12.63;;;;;;;2.49;78.60;99992.41;3853533;23;20024;-82
2020/12/02 04:39:06;;;;;;;26.38;12.80;;;;;;;2.45;78.50;99997.03;3850935;22;20016;-82
2020/12/02 04:40:44;;;;;;;22.25;12.32;;;;;;;2.56;78.53;99988.44;3850505;22;20012;-82
2020/12/02 04:42:27;;;;;;;22.40;12.40;;;;;;;2.47;78.38;99987.25;3852338;23;20025;-83
2020/12/02 04:43:59;;;;;;;25.10;13.43;;;;;;;2.48;78.52;99988.94;3850941;22;20025;-82
2020/12/02 04:45:33;;;;;;;22.73;12.40;;;;;;;2.49;78.47;99979.22;3850612;23;20025;-82
2020/12/02 04:47:11;;;;;;;22.08;12.07;;;;;;;2.50;78.34;99989.66;3840508;22;20462;-82
2020/12/02 04:48:55;;;;;;;22.45;12.43;;;;;;;2.50;78.39;99984.38;3846729;23;20048;-82
2020/12/02 04:50:30;;;;;;;20.00;11.27;;;;;;;2.50;78.42;99989.66;3840950;22;20025;-82
2020/12/02 04:52:09;;;;;;;20.45;10.85;;;;;;;2.56;78.37;99987.59;3846556;23;20025;-82
2020/12/02 04:53:48;;;;;;;21.02;11.60;;;;;;;2.56;78.08;99979.69;3841431;22;20025;-82
2020/12/02 04:55:30;;;;;;;24.63;12.82;;;;;;;2.53;78.19;99990.44;3847085;23;20028;-82
2020/12/02 04:57:02;;;;;;;20.75;11.70;;;;;;;2.64;78.34;99988.84;3842495;22;20072;-82
2020/12/02 04:58:35;;;;;;;25.15;13.65;;;;;;;2.59;77.88;99990.91;3843524;23;20118;-82
2020/12/02 05:00:22;;;;;;;22.55;12.88;;;;;;;2.55;77.90;99986.75;3840609;23;20052;-82
2020/12/02 05:01:55;;;;;;;20.90;11.25;;;;;;;2.54;78.23;99978.94;3840412;22;20029;-82
2020/12/02 05:03:27;;;;;;;19.02;10.35;;;;;;;2.64;77.95;99980.06;3841811;23;20052;-82
2020/12/02 05:05:00;;;;;;;22.63;11.32;;;;;;;2.65;77.77;99981.75;3839640;22;20108;-81
2020/12/02 05:06:36;;;;;;;21.30;11.57;;;;;;;2.59;77.69;99985.63;3841511;23;20386;-81
2020/12/02 05:08:28;;;;;;;23.42;12.00;;;;;;;2.62;77.69;99988.09;3838669;22;20017;-82
2020/12/02 05:10:10;;;;;;;20.33;10.35;;;;;;;2.59;77.42;99983.00;3845754;23;20028;-82
2020/12/02 05:11:43;;;;;;;19.35;10.07;;;;;;;2.67;77.52;99990.44;3839494;22;20052;-82
2020/12/02 05:13:14;;;;;;;25.48;13.95;;;;;;;2.64;77.32;99993.25;3845102;23;20051;-81
2020/12/02 05:14:47;;;;;;;23.73;14.35;;;;;;;2.62;77.28;99992.50;3838492;22;20095;-82
2020/12/02 05:16:18;;;;;;;23.30;12.30;;;;;;;2.54;77.48;99992.13;3844134;23;20025;-81
2020/12/02 05:18:11;;;;;;;24.77;13.43;;;;;;;2.52;77.24;99992.22;3839363;22;20021;-82
2020/12/02 05:19:44;;;;;;;22.02;11.43;;;;;;;2.50;77.45;99984.38;3840562;22;20028;-82
2020/12/02 05:21:21;;;;;;;22.70;12.38;;;;;;;2.54;77.34;99990.34;3844026;23;20021;-82
2020/12/02 05:22:53;;;;;;;19.02;11.00;;;;;;;2.57;77.46;99987.50;3841127;22;20021;-82
2020/12/02 05:24:24;;;;;;;25.35;13.73;;;;;;;2.55;76.91;99986.75;3843460;23;20473;-82
2020/12/02 05:25:55;;;;;;;24.23;13.75;;;;;;;2.48;77.05;99982.78;3838639;22;20024;-82
2020/12/02 05:27:31;;;;;;;24.13;12.85;;;;;;;2.47;77.24;99986.38;3841996;23;20025;-82
2020/12/02 05:29:16;;;;;;;19.40;11.93;;;;;;;2.48;77.32;99988.06;3839926;22;20048;-82
2020/12/02 05:30:49;;;;;;;25.30;12.98;;;;;;;2.50;77.46;99986.19;3843402;23;20052;-82
2020/12/02 05:32:29;;;;;;;22.30;11.82;;;;;;;2.54;77.31;99987.72;3839848;22;20025;-82
2020/12/02 05:34:10;;;;;;;25.10;13.07;;;;;;;2.49;77.35;99993.28;3842623;23;20024;-82
2020/12/02 05:35:46;;;;;;;26.70;14.63;;;;;;;2.41;77.56;99987.59;3838987;22;20021;-82
2020/12/02 05:37:27;;;;;;;24.20;12.95;;;;;;;2.45;77.87;99993.56;3842486;23;20093;-82
2020/12/02 05:39:13;;;;;;;25.98;14.23;;;;;;;2.40;78.06;99980.66;3844723;22;20036;-82
2020/12/02 05:40:45;;;;;;;19.75;10.57;;;;;;;2.45;78.13;99983.00;3844324;22;20021;-83
2020/12/02 05:42:32;;;;;;;21.23;11.18;;;;;;;2.53;77.65;99982.50;3849561;23;20449;-82
2020/12/02 05:44:13;;;;;;;24.30;12.02;;;;;;;2.50;77.79;99988.84;3845585;22;20012;-82
2020/12/02 05:45:54;;;;;;;;;;;;;;;2.43;77.88;99982.25;3855231;23;20090;-82
2020/12/02 05:47:29;;;;;;;22.42;11.70;;;;;;;2.51;77.93;99985.25;3846115;22;19900;-82
2020/12/02 05:49:15;;;;;;;29.98;14.90;;;;;;;2.42;77.65;99986.66;3853051;23;20428;-82
2020/12/02 05:50:49;;;;;;;22.67;12.00;;;;;;;2.37;78.13;99975.56;3847433;22;20025;-82
2020/12/02 05:52:26;;;;;;;24.65;14.23;;;;;;;2.39;77.80;99983.34;3849486;23;20095;-82
2020/12/02 05:54:04;;;;;;;23.73;12.15;;;;;;;2.43;78.14;99982.25;3843573;22;20031;-82
2020/12/02 05:55:36;;;;;;;22.08;12.45;;;;;;;2.36;78.14;99991.47;3853669;22;20021;-82
2020/12/02 05:57:14;;;;;;;23.30;13.00;;;;;;;2.31;78.26;99984.69;3846886;23;20052;-82
2020/12/02 05:58:46;;;;;;;29.88;17.25;;;;;;;2.32;77.93;99981.09;3822824;22;20021;-82
2020/12/02 06:00:18;;;;;;;23.75;12.45;;;;;;;2.25;78.08;99982.44;3864467;23;20024;-82
2020/12/02 06:01:50;;;;;;;30.10;15.80;;;;;;;2.25;78.19;99987.72;3846366;22;20077;-83
2020/12/02 06:03:25;;;;;;;24.50;11.70;;;;;;;2.29;78.25;99983.91;3848433;23;20021;-82
2020/12/02 06:04:56;;;;;;;28.75;15.15;;;;;;;2.25;78.17;99986.84;3843111;22;20079;-82
2020/12/02 06:06:31;;;;;;;25.58;13.43;;;;;;;2.25;78.26;99987.72;3843433;23;20059;-81
2020/12/02 06:08:04;;;;;;;26.80;12.70;;;;;;;2.27;78.31;99987.59;3837776;22;20020;-82
2020/12/02 06:09:45;;;;;;;24.90;14.35;;;;;;;2.32;78.10;99981.09;3844860;23;20242;-82
2020/12/02 06:11:34;;;;;;;25.65;14.10;;;;;;;2.26;78.01;99978.00;3844075;22;20047;-82
2020/12/02 06:13:11;;;;;;;26.75;13.40;;;;;;;2.34;78.05;99991.56;3846804;23;20025;-82
2020/12/02 06:14:47;;;;;;;27.38;13.63;;;;;;;2.25;77.96;99973.66;3842636;22;20040;-82
2020/12/02 06:16:33;;;;;;;29.65;15.05;;;;;;;2.22;78.04;99979.13;3844332;23;20040;-82
2020/12/02 06:18:20;;;;;;;26.63;14.02;;;;;;;2.31;78.00;99978.56;3841308;23;20552;-81
2020/12/02 06:19:52;;;;;;;24.73;13.02;;;;;;;2.27;78.01;99977.88;3844006;22;20033;-82
2020/12/02 06:21:38;;;;;;;23.55;12.23;;;;;;;2.31;77.94;99981.22;3846644;23;20021;-80
2020/12/02 06:23:09;;;;;;;23.95;13.50;;;;;;;2.30;77.69;99977.72;3841838;22;20036;-81
2020/12/02 06:24:46;;;;;;;23.27;11.93;;;;;;;2.37;77.73;99982.59;3844824;23;20028;-82
2020/12/02 06:26:34;;;;;;;26.65;13.65;;;;;;;2.34;77.60;99984.50;3839855;22;20028;-82
2020/12/02 06:28:08;;;;;;;22.55;11.98;;;;;;;2.32;77.74;99981.09;3841913;23;20067;-81
2020/12/02 06:29:40;;;;;;;23.58;13.80;;;;;;;2.34;77.54;99986.28;3841488;22;20075;-82
2020/12/02 06:31:23;;;;;;;25.88;13.88;;;;;;;2.32;77.57;99977.59;3843665;23;20025;-81
2020/12/02 06:33:13;;;;;;;23.88;13.05;;;;;;;2.28;77.42;99979.59;3840405;22;20025;-82
2020/12/02 06:35:16;;;;;;;26.67;13.43;;;;;;;2.24;77.30;99978.09;3782670;22;20044;-82
2020/12/02 06:37:12;;;;;;;28.10;14.20;;;;;;;2.27;77.49;99983.16;3825954;23;20029;-81
2020/12/02 06:38:45;;;;;;;26.15;14.07;;;;;;;2.24;77.68;99982.50;3838158;22;20025;-81
2020/12/02 06:40:18;;;;;;;27.65;14.15;;;;;;;2.27;77.31;99983.16;3842478;23;20040;-82
2020/12/02 06:41:50;;;;;;;27.55;13.45;;;;;;;2.26;77.36;99981.50;3837573;22;20025;-81
2020/12/02 06:43:23;;;;;;;27.10;13.43;;;;;;;2.31;77.09;99975.94;3842318;23;20027;-82
2020/12/02 06:45:30;;;;;;;25.58;14.20;;;;;;;2.25;77.35;99973.66;3837204;22;20066;-82
2020/12/02 06:47:25;;;;;;;26.25;14.07;;;;;;;2.22;77.26;99976.50;3801079;22;20017;-82
2020/12/02 06:48:57;;;;;;;24.65;12.65;;;;;;;2.21;77.45;99983.53;3841655;23;20021;-82
2020/12/02 06:50:31;;;;;;;22.42;12.35;;;;;;;2.26;77.48;99978.00;3841895;22;20032;-82
2020/12/02 06:52:05;;;;;;;27.20;13.68;;;;;;;2.30;77.36;99977.72;3843022;23;20067;-82
2020/12/02 06:53:38;;;;;;;23.75;12.95;;;;;;;2.32;77.13;99972.31;3835571;22;20087;-81
2020/12/02 06:55:13;;;;;;;21.42;11.65;;;;;;;2.35;77.00;99980.06;3841672;23;20025;-82
2020/12/02 06:56:45;;;;;;;22.38;11.32;;;;;;;2.40;77.07;99975.38;3837437;22;20017;-82
2020/12/02 06:58:18;;;;;;;23.00;12.52;;;;;;;2.44;76.72;99973.38;3835353;23;20032;-82
2020/12/02 06:59:54;;;;;;;21.13;11.13;;;;;;;2.45;76.75;99972.44;3839113;22;20032;-82
2020/12/02 07:01:27;;;;;;;21.92;10.57;;;;;;;2.48;76.70;99974.88;3843220;23;20076;-82
2020/12/02 07:03:03;;;;;;;23.08;12.23;;;;;;;2.44;76.43;99968.13;3840130;22;20021;-82
2020/12/02 07:04:36;;;;;;;22.63;11.85;;;;;;;2.43;76.43;99963.78;3841261;23;20055;-82
2020/12/02 07:06:13;;;;;;;25.35;13.15;;;;;;;2.49;76.48;99968.66;3840390;23;20017;-82
2020/12/02 07:07:45;;;;;;;21.67;11.75;;;;;;;2.42;76.36;99967.34;3836932;22;20021;-80
2020/12/02 07:09:17;;;;;;;26.33;14.40;;;;;;;2.41;76.24;99970.94;3838875;23;20465;-81
2020/12/02 07:11:02;;;;;;;25.15;13.07;;;;;;;2.36;76.21;99965.94;3835511;22;20021;-80
2020/12/02 07:12:33;;;;;;;23.13;12.45;;;;;;;2.36;76.50;99973.00;3839308;23;20021;-80
2020/12/02 07:14:21;;;;;;;21.48;11.60;;;;;;;2.39;76.13;99970.16;3836870;22;20028;-80
2020/12/02 07:15:52;;;;;;;19.38;10.55;;;;;;;2.46;76.45;99976.75;3839613;23;20437;-80
2020/12/02 07:17:23;;;;;;;21.20;12.13;;;;;;;2.50;76.31;99973.00;3837237;22;20029;-80
2020/12/02 07:18:58;;;;;;;22.15;12.68;;;;;;;2.47;76.08;99973.19;3839535;23;20021;-81
2020/12/02 07:20:30;;;;;;;23.67;12.68;;;;;;;2.46;76.15;99972.34;3840776;22;20075;-80
2020/12/02 07:22:06;;;;;;;20.98;11.77;;;;;;;2.50;76.04;99973.84;3841960;23;20025;-81
2020/12/02 07:23:41;;;;;;;18.10;10.38;;;;;;;2.55;76.06;99976.19;3837385;22;20021;-80